EmailTwitter


Observations de surface / Québec / CYUL (71627)

Régions: Québec | Canada | États-Unis | Europe | France | UK | Ailleurs
Station
Affichage
Infos & localisation pour CYUL (71627) | Aide pour décoder les METARs

Observations prises le 2018-05-25 à 20H00 UTC à MONTREAL INTL A, QB (CYUL)

Etat du ciel: partiellement nuageux.

Température: 26.0 Celsius

Point de rosée: 16.0 Celsius

Humidité relative: 54%

Indice Humidex: 31.

Vents: Sud-ouest à 33 km/h ou 18 noeuds.

Rafale du vent: 43 km/h ou 23 noeuds.

Pression au niveau moyen de la mer: 100.47 kilopascals.

Calage altimétrique: 100.47 kilopascals ou 29.67 pouces de mercure.

Visibilité horizontale: 15.00 milles terrestres ou 24.00 kilomètres.

Hauteur du plafond: 7620 mètres ( 25000 pieds ).

Observation METAR:

CYUL 252000Z 24018G23KT 15SM FEW040 SCT180 BKN250 26/16 A2967 RMK CU1AC3CI4 CU

TR SLP047 DENSITY ALT 1800FT=